createdAt,value
2023-05-02T00:00:02.309Z,38.58
2023-05-02T00:02:08.832Z,42.55
2023-05-02T00:04:12.474Z,39.47
2023-05-02T00:06:17.305Z,36.85
2023-05-02T00:08:20.689Z,35.05
2023-05-02T00:10:24.216Z,37.88
2023-05-02T00:12:27.539Z,41.70
2023-05-02T00:14:31.196Z,40.35
2023-05-02T00:16:34.603Z,37.38
2023-05-02T00:18:38.178Z,39.30
2023-05-02T00:20:42.229Z,41.95
2023-05-02T00:22:47.017Z,47.35
2023-05-02T00:24:50.360Z,46.03
2023-05-02T00:26:53.714Z,45.85
2023-05-02T00:28:57.391Z,49.58
2023-05-02T00:31:00.748Z,48.22
2023-05-02T00:33:07.126Z,47.78
2023-05-02T00:35:11.135Z,51.80
2023-05-02T00:37:14.611Z,48.45
2023-05-02T00:39:19.354Z,50.58
2023-05-02T00:41:22.832Z,53.35
2023-05-02T00:43:26.277Z,48.83
2023-05-02T00:45:30.559Z,51.47
2023-05-02T00:47:34.517Z,51.50
2023-05-02T00:49:38.374Z,49.65
2023-05-02T00:51:42.076Z,44.47
2023-05-02T00:53:46.352Z,45.70
2023-05-02T00:55:51.204Z,47.47
2023-05-02T00:57:54.697Z,46.97
2023-05-02T00:59:58.926Z,48.45
2023-05-02T01:02:12.983Z,47.30
2023-05-02T01:04:28.518Z,49.33
2023-05-02T01:06:42.253Z,45.55
2023-05-02T01:08:52.088Z,46.72
2023-05-02T01:11:04.915Z,47.97
2023-05-02T01:13:13.395Z,41.67
2023-05-02T01:15:20.505Z,48.13
2023-05-02T01:17:28.123Z,43.45
2023-05-02T01:19:36.654Z,48.35
2023-05-02T01:21:41.656Z,41.33
2023-05-02T01:23:58.789Z,38.15
2023-05-02T01:26:16.226Z,35.70
2023-05-02T01:28:30.412Z,34.42
2023-05-02T01:30:40.032Z,39.08
2023-05-02T01:32:47.000Z,34.72
2023-05-02T01:34:52.463Z,37.33
2023-05-02T01:36:58.817Z,33.97
2023-05-02T01:39:04.117Z,32.55
2023-05-02T01:41:08.450Z,33.78
2023-05-02T01:43:13.813Z,37.80
2023-05-02T01:45:17.804Z,30.80
2023-05-02T01:47:24.312Z,36.20
2023-05-02T01:49:30.770Z,30.63
2023-05-02T01:51:36.577Z,29.17
2023-05-02T01:53:41.487Z,32.67
2023-05-02T01:55:47.033Z,31.90
2023-05-02T01:57:54.507Z,31.38
2023-05-02T01:59:59.543Z,34.10
2023-05-02T02:02:03.815Z,29.58
2023-05-02T02:04:11.494Z,30.15
2023-05-02T02:06:17.327Z,27.65
2023-05-02T02:08:20.955Z,29.55
2023-05-02T02:10:30.876Z,27.08
2023-05-02T02:12:42.961Z,19.63
2023-05-02T02:14:51.250Z,19.42
2023-05-02T02:16:57.832Z,18.33
2023-05-02T02:19:08.538Z,16.15
2023-05-02T02:21:19.649Z,12.98
2023-05-02T02:23:26.394Z,11.18
2023-05-02T02:25:30.901Z,10.65
2023-05-02T02:27:34.341Z,11.27
2023-05-02T02:29:37.785Z,11.07
2023-05-02T02:31:41.247Z,12.15
2023-05-02T02:33:45.395Z,13.40
2023-05-02T02:35:55.010Z,14.43
2023-05-02T02:38:09.792Z,16.50
2023-05-02T02:40:22.061Z,19.40
2023-05-02T02:42:35.306Z,17.70
2023-05-02T02:44:48.764Z,19.00
2023-05-02T02:47:02.625Z,16.63
2023-05-02T02:49:23.070Z,18.70
2023-05-02T02:51:32.907Z,17.60
2023-05-02T02:53:48.170Z,15.52
2023-05-02T02:56:04.176Z,19.13
2023-05-02T02:58:20.207Z,29.20
2023-05-02T03:00:26.164Z,32.63
2023-05-02T03:02:33.866Z,24.80
2023-05-02T03:04:42.082Z,17.23
2023-05-02T03:06:45.803Z,21.63
2023-05-02T03:08:50.736Z,23.30
2023-05-02T03:10:56.308Z,24.85
2023-05-02T03:12:59.701Z,20.27
2023-05-02T03:15:18.479Z,16.15
2023-05-02T03:17:23.320Z,18.70
2023-05-02T03:19:28.052Z,26.15
2023-05-02T03:21:33.283Z,18.90
2023-05-02T03:23:43.021Z,20.63
2023-05-02T03:25:48.378Z,18.88
2023-05-02T03:27:59.182Z,30.20
2023-05-02T03:30:02.782Z,29.38
2023-05-02T03:32:08.406Z,27.33
2023-05-02T03:34:13.849Z,24.00
2023-05-02T03:36:18.535Z,28.02
2023-05-02T03:38:21.997Z,28.65
2023-05-02T03:40:28.284Z,27.25
2023-05-02T03:42:40.027Z,27.88
2023-05-02T03:44:48.361Z,30.05
2023-05-02T03:46:51.910Z,24.70
2023-05-02T03:48:55.482Z,27.52
2023-05-02T03:50:58.851Z,26.63
2023-05-02T03:53:02.923Z,27.92
2023-05-02T03:55:15.551Z,29.73
2023-05-02T03:57:18.911Z,25.73
2023-05-02T03:59:23.714Z,28.27
2023-05-02T04:01:27.765Z,24.75
2023-05-02T04:03:32.847Z,26.92
2023-05-02T04:05:37.978Z,29.33
2023-05-02T04:07:41.721Z,29.40
2023-05-02T04:09:45.160Z,29.50
2023-05-02T04:11:49.606Z,21.55
2023-05-02T04:13:53.896Z,27.33
2023-05-02T04:15:59.330Z,26.02
2023-05-02T04:18:06.718Z,24.13
2023-05-02T04:20:12.835Z,20.27
2023-05-02T04:22:20.348Z,26.05
2023-05-02T04:24:29.005Z,17.60
2023-05-02T04:26:34.154Z,22.52
2023-05-02T04:28:42.977Z,16.90
2023-05-02T04:30:47.938Z,24.70
2023-05-02T04:32:53.104Z,24.42
2023-05-02T04:34:57.042Z,19.80
2023-05-02T04:37:02.176Z,21.83
2023-05-02T04:39:07.692Z,18.25
2023-05-02T04:41:14.365Z,20.38
2023-05-02T04:43:24.555Z,18.52
2023-05-02T04:45:33.714Z,29.60
2023-05-02T04:47:37.240Z,17.83
2023-05-02T04:49:43.024Z,24.20
2023-05-02T04:51:46.582Z,24.40
2023-05-02T04:53:51.350Z,26.73
2023-05-02T04:55:55.804Z,21.55
2023-05-02T04:57:59.712Z,28.20
2023-05-02T05:00:03.835Z,30.13
2023-05-02T05:02:09.272Z,29.75
2023-05-02T05:04:12.888Z,28.63
2023-05-02T05:06:17.856Z,26.75
2023-05-02T05:08:22.094Z,25.05
2023-05-02T05:10:25.561Z,25.05
2023-05-02T05:12:28.964Z,22.77
2023-05-02T05:14:32.527Z,31.58
2023-05-02T05:16:35.935Z,28.55
2023-05-02T05:18:41.472Z,31.13
2023-05-02T05:20:47.628Z,22.88
2023-05-02T05:22:52.397Z,30.50
2023-05-02T05:24:57.526Z,21.02
2023-05-02T05:27:05.519Z,19.63
2023-05-02T05:29:09.004Z,20.92
2023-05-02T05:31:17.346Z,26.48
2023-05-02T05:33:24.695Z,28.40
2023-05-02T05:35:28.407Z,17.45
2023-05-02T05:37:33.230Z,24.65
2023-05-02T05:39:39.566Z,21.95
2023-05-02T05:41:43.274Z,23.00
2023-05-02T05:43:48.562Z,20.95
2023-05-02T05:45:53.522Z,22.13
2023-05-02T05:47:57.195Z,24.33
2023-05-02T05:50:03.510Z,18.17
2023-05-02T05:52:08.352Z,14.85
2023-05-02T05:54:12.424Z,17.42
2023-05-02T05:56:18.329Z,15.88
2023-05-02T05:58:29.492Z,14.80
2023-05-02T06:00:35.244Z,12.50
2023-05-02T06:02:38.813Z,16.55
2023-05-02T06:04:42.867Z,16.65
2023-05-02T06:06:46.989Z,16.88
2023-05-02T06:08:50.395Z,12.63
2023-05-02T06:10:53.807Z,14.18
2023-05-02T06:12:58.626Z,14.32
2023-05-02T06:15:07.764Z,13.95
2023-05-02T06:17:11.748Z,11.90
2023-05-02T06:19:15.316Z,16.88
2023-05-02T06:21:18.737Z,22.88
2023-05-02T06:23:22.799Z,17.80
2023-05-02T06:25:26.925Z,13.38
2023-05-02T06:27:32.939Z,16.98
2023-05-02T06:29:38.336Z,20.52
2023-05-02T06:31:42.115Z,18.08
2023-05-02T06:33:45.584Z,15.75
2023-05-02T06:35:52.723Z,18.35
2023-05-02T06:37:56.096Z,12.70
2023-05-02T06:39:59.630Z,20.05
2023-05-02T06:42:03.112Z,14.98
2023-05-02T06:44:08.018Z,11.95
2023-05-02T06:46:12.816Z,15.57
2023-05-02T06:48:16.400Z,12.15
2023-05-02T06:50:20.024Z,14.30
2023-05-02T06:52:23.421Z,18.40
2023-05-02T06:54:27.176Z,10.98
2023-05-02T06:56:31.329Z,15.38
2023-05-02T06:58:34.776Z,13.10
2023-05-02T07:00:38.214Z,8.25
2023-05-02T07:02:43.084Z,10.35
2023-05-02T07:04:46.631Z,11.55
2023-05-02T07:06:50.546Z,7.72
2023-05-02T07:08:54.070Z,8.40
2023-05-02T07:10:57.455Z,7.65
2023-05-02T07:13:00.875Z,10.63
2023-05-02T07:15:04.491Z,9.77
2023-05-02T07:17:08.092Z,10.77
2023-05-02T07:19:12.904Z,8.93
2023-05-02T07:21:16.304Z,9.55
2023-05-02T07:23:20.426Z,4.88
2023-05-02T07:25:23.837Z,10.38
2023-05-02T07:27:27.189Z,7.80
2023-05-02T07:29:30.542Z,8.35
2023-05-02T07:31:34.364Z,8.32
2023-05-02T07:33:37.739Z,5.78
2023-05-02T07:35:42.587Z,10.27
2023-05-02T07:37:45.944Z,11.95
2023-05-02T07:39:49.369Z,11.27
2023-05-02T07:41:53.072Z,7.32
2023-05-02T07:43:57.609Z,12.82
2023-05-02T07:46:05.660Z,12.20
2023-05-02T07:48:09.113Z,8.43
2023-05-02T07:50:12.828Z,8.27
2023-05-02T07:52:17.545Z,14.30
2023-05-02T07:54:22.094Z,12.30
2023-05-02T07:56:25.600Z,7.88
2023-05-02T07:58:29.196Z,7.55
2023-05-02T08:00:32.614Z,13.73
2023-05-02T08:02:37.085Z,11.30
2023-05-02T08:04:40.783Z,11.80
2023-05-02T08:06:45.933Z,8.63
2023-05-02T08:08:50.764Z,10.98
2023-05-02T08:10:54.167Z,11.23
2023-05-02T08:12:57.546Z,10.25
2023-05-02T08:15:00.904Z,12.32
2023-05-02T08:17:04.217Z,12.52
2023-05-02T08:19:07.559Z,10.32
2023-05-02T08:21:12.475Z,8.30
2023-05-02T08:23:15.783Z,9.55
2023-05-02T08:25:20.624Z,12.95
2023-05-02T08:27:24.006Z,14.65
2023-05-02T08:29:27.325Z,9.50
2023-05-02T08:31:30.769Z,12.77
2023-05-02T08:33:34.184Z,10.23
2023-05-02T08:35:37.676Z,10.65
2023-05-02T08:37:41.158Z,8.77
2023-05-02T08:39:44.504Z,10.45
2023-05-02T08:41:49.601Z,13.85
2023-05-02T08:43:53.995Z,12.80
2023-05-02T08:46:01.265Z,7.65
2023-05-02T08:48:08.413Z,9.50
2023-05-02T08:50:12.360Z,10.25
2023-05-02T08:52:16.808Z,9.27
2023-05-02T08:54:22.448Z,10.35
2023-05-02T08:56:26.357Z,9.55
2023-05-02T08:58:31.853Z,8.65
2023-05-02T09:00:40.848Z,7.68
2023-05-02T09:02:58.293Z,12.18
2023-05-02T09:05:07.767Z,6.10
2023-05-02T09:07:13.800Z,6.18
2023-05-02T09:09:18.929Z,8.90
2023-05-02T09:11:23.092Z,7.50
2023-05-02T09:13:32.039Z,7.35
2023-05-02T09:15:35.386Z,8.13
2023-05-02T09:17:43.144Z,9.95
2023-05-02T09:19:46.572Z,11.15
2023-05-02T09:21:50.167Z,6.63
2023-05-02T09:23:56.028Z,5.72
2023-05-02T09:26:00.212Z,7.78
2023-05-02T09:28:03.898Z,5.97
2023-05-02T09:30:25.890Z,9.45
2023-05-02T09:32:46.616Z,7.38
2023-05-02T09:35:08.753Z,7.68
2023-05-02T09:37:13.601Z,9.30
2023-05-02T09:39:19.366Z,7.72
2023-05-02T09:41:22.770Z,6.55
2023-05-02T09:43:26.198Z,4.78
2023-05-02T09:45:30.954Z,4.47
2023-05-02T09:47:34.509Z,6.00
2023-05-02T09:49:42.448Z,5.05
2023-05-02T09:51:46.665Z,4.55
2023-05-02T09:53:50.869Z,5.43
2023-05-02T09:56:04.787Z,9.38
2023-05-02T09:58:08.246Z,6.53
2023-05-02T10:00:15.065Z,6.55
2023-05-02T10:02:21.932Z,7.22
2023-05-02T10:04:26.399Z,4.53
2023-05-02T10:06:29.923Z,6.70
2023-05-02T10:08:35.033Z,7.88
2023-05-02T10:10:39.754Z,3.72
2023-05-02T10:12:43.327Z,12.93
2023-05-02T10:14:50.826Z,6.07
2023-05-02T10:17:01.054Z,8.63
2023-05-02T10:19:10.390Z,6.50
2023-05-02T10:21:15.457Z,8.23
2023-05-02T10:23:20.002Z,8.20
2023-05-02T10:25:23.674Z,7.53
2023-05-02T10:27:27.163Z,7.60
2023-05-02T10:29:31.059Z,5.95
2023-05-02T10:31:37.727Z,8.93
2023-05-02T10:33:41.955Z,6.50
2023-05-02T10:35:47.719Z,6.47
2023-05-02T10:37:52.158Z,6.32
2023-05-02T10:39:55.866Z,6.40
2023-05-02T10:42:02.245Z,6.00
2023-05-02T10:44:07.967Z,6.20
2023-05-02T10:46:33.766Z,5.97
2023-05-02T10:48:38.760Z,4.47
2023-05-02T10:50:47.765Z,4.95
2023-05-02T10:52:51.681Z,4.88
2023-05-02T10:55:15.169Z,4.10
2023-05-02T10:57:18.580Z,8.35
2023-05-02T10:59:29.507Z,5.32
2023-05-02T11:01:40.395Z,6.90
2023-05-02T11:03:57.489Z,9.77
2023-05-02T11:06:09.892Z,9.93
2023-05-02T11:08:32.211Z,8.73
2023-05-02T11:10:35.673Z,5.93
2023-05-02T11:12:49.429Z,8.65
2023-05-02T11:14:52.837Z,11.05
2023-05-02T11:17:09.896Z,6.95
2023-05-02T11:19:13.313Z,10.68
2023-05-02T11:21:32.860Z,8.52
2023-05-02T11:23:37.365Z,5.25
2023-05-02T11:25:43.567Z,6.93
2023-05-02T11:27:49.366Z,7.78
2023-05-02T11:29:56.261Z,5.18
2023-05-02T11:31:59.822Z,5.53
2023-05-02T11:34:04.664Z,5.05
2023-05-02T11:36:08.455Z,5.53
2023-05-02T11:38:14.812Z,10.43
2023-05-02T11:40:18.557Z,6.70
2023-05-02T11:42:31.734Z,5.05
2023-05-02T11:44:35.953Z,5.57
2023-05-02T11:46:40.218Z,6.60
2023-05-02T11:48:43.862Z,6.30
2023-05-02T11:50:50.332Z,6.40
2023-05-02T11:52:54.327Z,3.83
2023-05-02T11:54:59.438Z,5.22
2023-05-02T11:57:03.130Z,3.45
2023-05-02T11:59:06.570Z,6.20
2023-05-02T12:01:14.598Z,6.90
2023-05-02T12:03:25.473Z,7.10
2023-05-02T12:05:30.708Z,6.43
2023-05-02T12:07:38.209Z,8.57
2023-05-02T12:09:52.321Z,8.10
2023-05-02T12:11:57.521Z,5.93
2023-05-02T12:14:01.144Z,5.43
2023-05-02T12:16:05.036Z,6.63
2023-05-02T12:18:09.264Z,6.07
2023-05-02T12:20:13.908Z,5.60
2023-05-02T12:22:18.123Z,6.32
2023-05-02T12:24:21.636Z,5.47
2023-05-02T12:26:29.597Z,3.28
2023-05-02T12:28:50.421Z,9.18
2023-05-02T12:30:53.886Z,11.03
2023-05-02T12:32:59.185Z,8.90
2023-05-02T12:35:04.384Z,6.25
2023-05-02T12:37:10.040Z,7.20
2023-05-02T12:39:14.447Z,7.35
2023-05-02T12:41:17.986Z,5.50
2023-05-02T12:43:22.135Z,5.43
2023-05-02T12:45:29.324Z,2.92
2023-05-02T12:47:46.219Z,6.93
2023-05-02T12:49:50.625Z,8.48
2023-05-02T12:51:55.835Z,6.10
2023-05-02T12:53:59.150Z,6.78
2023-05-02T12:56:05.944Z,7.78
2023-05-02T12:58:10.577Z,8.40
2023-05-02T13:00:17.575Z,6.55
2023-05-02T13:02:22.916Z,7.25
2023-05-02T13:04:35.568Z,6.45
2023-05-02T13:06:39.263Z,7.53
2023-05-02T13:08:42.636Z,5.90
2023-05-02T13:10:45.932Z,10.20
2023-05-02T13:12:49.965Z,8.13
2023-05-02T13:14:53.356Z,4.15
2023-05-02T13:16:57.156Z,11.05
2023-05-02T13:19:01.924Z,7.90
2023-05-02T13:21:05.837Z,7.47
2023-05-02T13:23:09.199Z,9.68
2023-05-02T13:25:12.726Z,9.60
2023-05-02T13:27:18.557Z,7.00
2023-05-02T13:29:21.932Z,5.47
2023-05-02T13:31:25.379Z,6.47
2023-05-02T13:33:28.816Z,5.53
2023-05-02T13:35:35.264Z,7.18
2023-05-02T13:37:38.851Z,7.95
2023-05-02T13:39:42.353Z,6.68
2023-05-02T13:41:45.712Z,9.43
2023-05-02T13:43:49.030Z,9.30
2023-05-02T13:45:52.631Z,8.05
2023-05-02T13:47:56.112Z,7.50
2023-05-02T13:49:59.707Z,8.75
2023-05-02T13:52:04.818Z,8.32
2023-05-02T13:54:08.187Z,7.15
2023-05-02T13:56:11.508Z,7.22
2023-05-02T13:58:14.887Z,7.13
2023-05-02T14:00:18.781Z,10.23
2023-05-02T14:02:22.564Z,9.57
2023-05-02T14:04:26.005Z,8.00
2023-05-02T14:06:29.415Z,9.43
2023-05-02T14:08:34.269Z,8.48
2023-05-02T14:10:37.965Z,9.35
2023-05-02T14:12:41.429Z,8.48
2023-05-02T14:14:44.734Z,8.18
2023-05-02T14:16:50.266Z,10.38
2023-05-02T14:18:54.056Z,6.95
2023-05-02T14:21:00.006Z,4.55
2023-05-02T14:23:05.252Z,8.95
2023-05-02T14:25:11.410Z,6.65
2023-05-02T14:27:18.359Z,6.10
2023-05-02T14:29:21.847Z,7.28
2023-05-02T14:31:25.315Z,5.60
2023-05-02T14:33:28.772Z,5.70
2023-05-02T14:35:32.103Z,4.75
2023-05-02T14:37:35.649Z,5.57
2023-05-02T14:39:40.422Z,7.10
2023-05-02T14:41:45.336Z,7.65
2023-05-02T14:43:48.760Z,7.80
2023-05-02T14:45:52.150Z,9.35
2023-05-02T14:47:55.996Z,7.68
2023-05-02T14:49:59.743Z,9.57
2023-05-02T14:52:03.458Z,4.93
2023-05-02T14:54:07.202Z,5.28
2023-05-02T14:56:14.837Z,7.72
2023-05-02T14:58:20.791Z,6.32
2023-05-02T15:00:24.741Z,8.85
2023-05-02T15:02:28.307Z,10.10
2023-05-02T15:04:31.998Z,7.13
2023-05-02T15:06:36.786Z,8.80
2023-05-02T15:08:40.774Z,7.22
2023-05-02T15:10:44.255Z,5.40
2023-05-02T15:12:50.868Z,6.85
2023-05-02T15:14:55.648Z,7.47
2023-05-02T15:16:59.054Z,7.55
2023-05-02T15:19:02.605Z,7.70
2023-05-02T15:21:06.709Z,7.30
2023-05-02T15:23:10.148Z,6.70
2023-05-02T15:25:13.540Z,7.22
2023-05-02T15:27:16.916Z,12.40
2023-05-02T15:29:25.375Z,5.03
2023-05-02T15:31:30.245Z,5.93
2023-05-02T15:33:33.886Z,9.48
2023-05-02T15:35:37.252Z,7.05
2023-05-02T15:37:40.582Z,6.72
2023-05-02T15:39:43.938Z,9.38
2023-05-02T15:41:48.010Z,11.50
2023-05-02T15:43:51.535Z,13.00
2023-05-02T15:45:56.052Z,9.73
2023-05-02T15:48:01.141Z,8.13
2023-05-02T15:50:05.198Z,5.45
2023-05-02T15:52:09.139Z,8.80
2023-05-02T15:54:12.460Z,6.50
2023-05-02T15:56:15.994Z,6.22
2023-05-02T15:58:20.391Z,5.10
2023-05-02T16:00:23.867Z,8.07
2023-05-02T16:02:27.222Z,8.43
2023-05-02T16:04:32.248Z,5.90
2023-05-02T16:06:36.432Z,6.57
2023-05-02T16:08:40.162Z,8.18
2023-05-02T16:10:43.579Z,5.40
2023-05-02T16:12:46.960Z,6.63
2023-05-02T16:14:50.355Z,5.15
2023-05-02T16:16:53.926Z,5.50
2023-05-02T16:18:57.485Z,7.22
2023-05-02T16:21:02.224Z,8.02
2023-05-02T16:23:05.628Z,8.68
2023-05-02T16:25:09.291Z,5.65
2023-05-02T16:27:12.666Z,5.50
2023-05-02T16:29:16.173Z,6.55
2023-05-02T16:31:19.528Z,7.00
2023-05-02T16:33:23.113Z,5.45
2023-05-02T16:35:26.782Z,4.55
2023-05-02T16:37:31.544Z,3.45
2023-05-02T16:39:35.301Z,4.63
2023-05-02T16:41:38.738Z,4.45
2023-05-02T16:43:42.338Z,5.13
2023-05-02T16:45:47.086Z,6.28
2023-05-02T16:47:50.652Z,6.70
2023-05-02T16:49:55.140Z,7.57
2023-05-02T16:51:58.447Z,9.02
2023-05-02T16:54:03.367Z,5.28
2023-05-02T16:56:07.587Z,7.50
2023-05-02T16:58:11.118Z,7.32
2023-05-02T17:00:17.135Z,6.95
2023-05-02T17:02:22.608Z,3.85
2023-05-02T17:04:27.768Z,8.57
2023-05-02T17:06:32.132Z,4.47
2023-05-02T17:08:37.360Z,5.38
2023-05-02T17:10:43.556Z,6.60
2023-05-02T17:12:47.018Z,6.13
2023-05-02T17:14:51.733Z,5.25
2023-05-02T17:16:55.315Z,7.40
2023-05-02T17:18:58.762Z,7.65
2023-05-02T17:21:03.919Z,4.60
2023-05-02T17:23:09.121Z,4.10
2023-05-02T17:25:12.470Z,7.18
2023-05-02T17:27:20.440Z,8.15
2023-05-02T17:29:24.056Z,4.70
2023-05-02T17:31:27.492Z,5.95
2023-05-02T17:33:30.844Z,6.38
2023-05-02T17:35:34.303Z,3.33
2023-05-02T17:37:38.893Z,4.15
2023-05-02T17:39:42.334Z,5.80
2023-05-02T17:41:45.975Z,6.25
2023-05-02T17:43:50.730Z,7.10
2023-05-02T17:45:54.107Z,4.25
2023-05-02T17:47:57.847Z,4.82
2023-05-02T17:50:04.756Z,4.22
2023-05-02T17:52:08.444Z,9.32
2023-05-02T17:54:12.004Z,2.78
2023-05-02T17:56:18.679Z,5.78
2023-05-02T17:58:22.191Z,7.72
2023-05-02T18:00:27.320Z,4.28
2023-05-02T18:02:30.718Z,8.15
2023-05-02T18:04:34.458Z,4.60
2023-05-02T18:06:37.985Z,5.18
2023-05-02T18:08:41.438Z,6.95
2023-05-02T18:10:44.804Z,7.03
2023-05-02T18:12:48.184Z,8.85
2023-05-02T18:14:52.651Z,4.57
2023-05-02T18:16:57.405Z,8.65
2023-05-02T18:19:00.943Z,5.57
2023-05-02T18:21:04.366Z,4.97
2023-05-02T18:23:07.987Z,5.38
2023-05-02T18:25:11.809Z,4.97
2023-05-02T18:27:15.198Z,10.13
2023-05-02T18:29:18.674Z,6.32
2023-05-02T18:31:22.421Z,5.45
2023-05-02T18:33:27.203Z,8.77
2023-05-02T18:35:31.045Z,8.50
2023-05-02T18:37:35.599Z,4.90
2023-05-02T18:39:38.949Z,6.68
2023-05-02T18:41:42.292Z,6.47
2023-05-02T18:43:45.846Z,5.95
2023-05-02T18:45:49.287Z,8.27
2023-05-02T18:47:52.968Z,8.85
2023-05-02T18:49:59.600Z,4.55
2023-05-02T18:52:03.510Z,9.90
2023-05-02T18:54:07.147Z,9.45
2023-05-02T18:56:14.663Z,7.00
2023-05-02T18:58:18.002Z,9.82
2023-05-02T19:00:21.587Z,7.68
2023-05-02T19:02:25.061Z,7.68
2023-05-02T19:04:31.855Z,4.40
2023-05-02T19:06:36.732Z,5.10
2023-05-02T19:08:41.044Z,7.05
2023-05-02T19:10:44.382Z,5.40
2023-05-02T19:12:47.870Z,8.00
2023-05-02T19:14:51.612Z,6.63
2023-05-02T19:16:54.919Z,5.35
2023-05-02T19:18:58.412Z,4.38
2023-05-02T19:21:11.050Z,7.95
2023-05-02T19:23:20.253Z,10.25
2023-05-02T19:25:24.118Z,10.23
2023-05-02T19:27:27.644Z,6.15
2023-05-02T19:29:31.066Z,8.75
2023-05-02T19:31:34.493Z,6.53
2023-05-02T19:33:38.063Z,7.68
2023-05-02T19:35:41.496Z,5.68
2023-05-02T19:37:45.163Z,7.38
2023-05-02T19:39:50.059Z,9.88
2023-05-02T19:41:53.714Z,6.22
2023-05-02T19:43:58.912Z,6.22
2023-05-02T19:46:02.397Z,7.32
2023-05-02T19:48:06.388Z,4.68
2023-05-02T19:50:10.976Z,8.57
2023-05-02T19:52:14.293Z,10.18
2023-05-02T19:54:17.744Z,9.60
2023-05-02T19:56:25.444Z,7.85
2023-05-02T19:58:29.615Z,7.05
2023-05-02T20:00:32.984Z,7.82
2023-05-02T20:02:36.437Z,8.02
2023-05-02T20:04:39.896Z,6.80
2023-05-02T20:06:43.502Z,7.05
2023-05-02T20:08:46.996Z,5.53
2023-05-02T20:10:50.400Z,11.35
2023-05-02T20:12:55.206Z,5.78
2023-05-02T20:14:58.707Z,5.03
2023-05-02T20:17:02.338Z,8.00
2023-05-02T20:19:05.675Z,9.25
2023-05-02T20:21:09.186Z,5.57
2023-05-02T20:23:12.584Z,4.65
2023-05-02T20:25:16.039Z,8.15
2023-05-02T20:27:19.404Z,8.57
2023-05-02T20:29:24.163Z,6.90
2023-05-02T20:31:27.682Z,9.40
2023-05-02T20:33:43.750Z,8.00
2023-05-02T20:35:55.078Z,9.82
2023-05-02T20:37:58.476Z,4.05
2023-05-02T20:40:02.445Z,10.20
2023-05-02T20:42:06.697Z,6.47
2023-05-02T20:44:10.008Z,9.80
2023-05-02T20:46:16.955Z,4.05
2023-05-02T20:48:20.288Z,10.23
2023-05-02T20:50:23.924Z,11.63
2023-05-02T20:52:27.301Z,8.75
2023-05-02T20:54:31.012Z,11.68
2023-05-02T20:56:34.339Z,7.90
2023-05-02T20:58:37.834Z,5.90
2023-05-02T21:00:42.056Z,7.68
2023-05-02T21:02:46.902Z,5.13
2023-05-02T21:04:50.283Z,5.95
2023-05-02T21:06:56.748Z,8.90
2023-05-02T21:09:01.978Z,7.50
2023-05-02T21:11:13.621Z,9.80
2023-05-02T21:15:20.047Z,9.63
2023-05-02T21:17:26.314Z,12.38
2023-05-02T21:19:33.085Z,4.90
2023-05-02T21:21:36.384Z,11.68
2023-05-02T21:23:39.832Z,7.15
2023-05-02T21:25:43.153Z,5.85
2023-05-02T21:27:46.558Z,5.70
2023-05-02T21:29:49.948Z,9.15
2023-05-02T21:31:54.800Z,8.63
2023-05-02T21:33:58.347Z,8.32
2023-05-02T21:36:03.066Z,11.77
2023-05-02T21:38:06.321Z,14.32
2023-05-02T21:40:10.726Z,8.32
2023-05-02T21:42:14.071Z,12.45
2023-05-02T21:44:17.402Z,10.02
2023-05-02T21:46:20.925Z,8.98
2023-05-02T21:48:24.553Z,14.20
2023-05-02T21:50:29.417Z,9.73
2023-05-02T21:52:34.153Z,8.65
2023-05-02T21:54:37.639Z,8.25
2023-05-02T21:56:40.919Z,11.15
2023-05-02T21:58:45.300Z,9.95
2023-05-02T22:00:48.829Z,9.25
2023-05-02T22:02:52.219Z,9.00
2023-05-02T22:04:57.888Z,10.00
2023-05-02T22:07:01.394Z,9.38
2023-05-02T22:09:08.377Z,6.05
2023-05-02T22:11:11.730Z,11.90
2023-05-02T22:13:16.774Z,7.10
2023-05-02T22:15:20.142Z,7.53
2023-05-02T22:17:23.487Z,12.90
2023-05-02T22:19:26.917Z,9.23
2023-05-02T22:21:30.542Z,9.13
2023-05-02T22:23:34.271Z,12.10
2023-05-02T22:25:41.644Z,8.45
2023-05-02T22:27:45.085Z,13.45
2023-05-02T22:29:48.474Z,7.43
2023-05-02T22:31:52.316Z,11.38
2023-05-02T22:33:55.760Z,6.60
2023-05-02T22:35:59.214Z,9.10
2023-05-02T22:38:02.822Z,9.85
2023-05-02T22:40:08.401Z,15.43
2023-05-02T22:42:13.162Z,9.18
2023-05-02T22:44:16.555Z,8.55
2023-05-02T22:46:19.986Z,16.38
2023-05-02T22:48:23.329Z,7.13
2023-05-02T22:50:27.493Z,11.75
2023-05-02T22:52:30.881Z,7.95
2023-05-02T22:54:34.213Z,10.45
2023-05-02T22:56:37.723Z,9.30
2023-05-02T22:58:42.611Z,13.27
2023-05-02T23:00:46.288Z,10.25
2023-05-02T23:02:49.873Z,9.35
2023-05-02T23:04:53.259Z,10.73
2023-05-02T23:06:56.620Z,10.45
2023-05-02T23:08:59.955Z,8.88
2023-05-02T23:11:03.329Z,8.45
2023-05-02T23:13:06.779Z,8.70
2023-05-02T23:15:12.434Z,10.57
2023-05-02T23:17:15.853Z,12.48
2023-05-02T23:19:19.214Z,9.60
2023-05-02T23:21:22.569Z,7.97
2023-05-02T23:23:26.493Z,8.68
2023-05-02T23:25:30.941Z,12.70
2023-05-02T23:27:34.282Z,11.25
2023-05-02T23:29:37.689Z,10.40
2023-05-02T23:31:42.644Z,11.38
2023-05-02T23:33:52.016Z,13.18
2023-05-02T23:35:55.428Z,12.95
2023-05-02T23:38:00.964Z,9.93
2023-05-02T23:40:04.906Z,7.03
2023-05-02T23:42:09.547Z,9.65
2023-05-02T23:44:12.948Z,11.55
2023-05-02T23:46:16.404Z,7.35
2023-05-02T23:48:21.300Z,11.75
2023-05-02T23:50:24.664Z,12.10
2023-05-02T23:52:28.012Z,7.43
2023-05-02T23:54:32.677Z,7.13
2023-05-02T23:56:37.132Z,7.90
2023-05-02T23:58:40.553Z,7.35
